Time;durP1;ratioP1;P1;durP2;ratioP2;P2;SDS_P1;SDS_P2;PMS_P1;PMS_P2;Temp;Humidity;BMP_temperature;BMP_pressure;BME280_temperature;BME280_humidity;BME280_pressure;Samples;Min_cycle;Max_cycle;Signal;HPM_P1;HPM_P2
2022/09/13 00:01:53;;;;;;;3.95;1.95;;;;;;;9.90;100.00;98666.56;4485795;31;20114;-76
2022/09/13 00:04:20;;;;;;;2.85;1.92;;;;;;;9.86;100.00;98673.06;4489135;31;20151;-76
2022/09/13 00:06:47;;;;;;;2.97;2.15;;;;;;;9.79;100.00;98667.53;4495431;31;20126;-76
2022/09/13 00:09:14;;;;;;;5.30;2.12;;;;;;;9.79;100.00;98671.94;4485739;31;20084;-76
2022/09/13 00:11:42;;;;;;;5.05;2.50;;;;;;;9.79;100.00;98671.94;4485989;31;20187;-76
2022/09/13 00:14:09;;;;;;;3.80;2.00;;;;;;;9.74;100.00;98665.31;4485856;31;20100;-76
2022/09/13 00:16:36;;;;;;;4.95;2.37;;;;;;;9.69;100.00;98671.91;4486111;31;20146;-76
2022/09/13 00:19:03;;;;;;;3.78;2.08;;;;;;;9.62;100.00;98666.38;4485596;31;20115;-76
2022/09/13 00:21:31;;;;;;;2.72;2.08;;;;;;;9.60;100.00;98673.56;4485679;31;20097;-76
2022/09/13 00:23:58;;;;;;;2.83;2.15;;;;;;;9.56;100.00;98666.94;4485728;31;20096;-76
2022/09/13 00:26:26;;;;;;;2.75;2.08;;;;;;;9.48;100.00;98658.91;4485486;31;20159;-76
2022/09/13 00:28:56;;;;;;;2.50;2.03;;;;;;;9.49;100.00;98663.19;4485572;31;20152;-76
2022/09/13 00:31:26;;;;;;;3.80;2.10;;;;;;;9.54;100.00;98666.25;4484316;32;20089;-76
2022/09/13 00:33:54;;;;;;;3.50;2.00;;;;;;;9.61;100.00;98663.91;4486016;32;20096;-76
2022/09/13 00:36:21;;;;;;;2.30;1.98;;;;;;;9.56;100.00;98666.94;4485640;31;20139;-76
2022/09/13 00:38:48;;;;;;;2.40;1.95;;;;;;;9.58;100.00;98655.38;4485705;31;20104;-76
2022/09/13 00:41:18;;;;;;;4.40;2.35;;;;;;;9.59;100.00;98656.19;4485724;31;20104;-76
2022/09/13 00:43:49;;;;;;;2.75;2.20;;;;;;;9.52;100.00;98655.91;4485508;31;20104;-76
2022/09/13 00:46:23;;;;;;;5.97;2.10;;;;;;;9.46;100.00;98658.22;4485410;32;20478;-76
2022/09/13 00:48:52;;;;;;;2.87;2.30;;;;;;;9.39;100.00;98660.53;4485100;31;20122;-76
2022/09/13 00:51:20;;;;;;;2.85;2.00;;;;;;;9.33;100.00;98658.47;4484235;32;20221;-76
2022/09/13 00:53:50;;;;;;;3.55;2.15;;;;;;;9.24;100.00;98662.69;4485566;31;20164;-76
2022/09/13 00:56:24;;;;;;;3.78;2.08;;;;;;;9.19;100.00;98664.84;4485743;31;20387;-76
2022/09/13 00:58:57;;;;;;;2.70;2.00;;;;;;;9.10;100.00;98658.63;4484563;32;20115;-76
2022/09/13 01:01:30;;;;;;;5.75;2.17;;;;;;;9.01;100.00;98662.84;4485280;31;20489;-76
2022/09/13 01:03:58;;;;;;;3.40;2.17;;;;;;;8.95;100.00;98652.91;4485312;31;20092;-76
2022/09/13 01:06:31;;;;;;;2.83;2.22;;;;;;;8.92;100.00;98653.19;4497172;31;20136;-76
2022/09/13 01:09:03;;;;;;;3.47;2.15;;;;;;;8.86;100.00;98656.31;4484151;32;20133;-76
2022/09/13 01:11:48;;;;;;;4.03;2.00;;;;;;;8.81;100.00;98661.06;4484842;31;20084;-76
2022/09/13 01:14:18;;;;;;;3.85;2.47;;;;;;;8.90;100.00;98662.09;4485210;31;20143;-76
2022/09/13 01:16:45;;;;;;;4.75;2.62;;;;;;;8.84;100.00;98661.66;4484071;32;20155;-76
2022/09/13 01:19:14;;;;;;;3.17;2.40;;;;;;;8.80;100.00;98664.66;4485555;31;20088;-76
2022/09/13 01:21:54;;;;;;;3.67;2.78;;;;;;;8.74;100.00;98660.78;4485216;31;20226;-76
2022/09/13 01:24:48;;;;;;;6.25;2.33;;;;;;;8.66;100.00;98661.41;4484329;32;20434;-76
2022/09/13 01:27:21;;;;;;;;;;;;;;;8.68;100.00;98662.09;4485731;31;20737;-76
2022/09/13 01:30:03;;;;;;;4.15;2.33;;;;;;;8.66;100.00;98653.59;4485434;32;20025;-76
2022/09/13 01:32:56;;;;;;;3.95;2.62;;;;;;;8.58;100.00;98658.59;4485112;31;20084;-76
2022/09/13 01:35:27;;;;;;;3.20;2.12;;;;;;;8.55;100.00;98658.84;4485128;32;20076;-76
2022/09/13 01:38:04;;;;;;;4.75;2.50;;;;;;;8.51;100.00;98658.28;4485397;31;20088;-76
2022/09/13 01:40:56;;;;;;;8.07;2.45;;;;;;;8.50;100.00;98645.37;4485173;31;20085;-76
2022/09/13 01:43:45;;;;;;;3.25;2.15;;;;;;;8.46;100.00;98646.56;4485522;32;20475;-76
2022/09/13 01:46:21;;;;;;;4.18;2.40;;;;;;;8.40;100.00;98641.81;4485164;31;20089;-76
2022/09/13 01:49:17;;;;;;;3.25;2.35;;;;;;;8.33;100.00;98647.53;4484055;32;20184;-76
2022/09/13 01:51:53;;;;;;;3.58;2.15;;;;;;;8.27;100.00;98642.81;4482287;32;20083;-76
2022/09/13 01:54:37;;;;;;;5.87;2.65;;;;;;;8.26;100.00;98642.97;4483947;32;20131;-76
2022/09/13 01:57:13;;;;;;;5.55;2.05;;;;;;;8.25;100.00;98634.31;4483760;32;20156;-76
2022/09/13 01:59:51;;;;;;;8.38;2.58;;;;;;;8.28;100.00;98638.44;4484932;31;20161;-76
2022/09/13 02:02:43;;;;;;;9.32;2.70;;;;;;;8.29;100.00;98635.69;4483621;32;20092;-76
2022/09/13 02:05:21;;;;;;;3.85;2.33;;;;;;;8.29;100.00;98638.31;4493941;31;20136;-76
2022/09/13 02:08:28;;;;;;;2.67;2.28;;;;;;;8.27;100.00;98634.19;4486297;31;20121;-76
2022/09/13 02:11:01;;;;;;;4.25;2.50;;;;;;;8.23;100.00;98641.41;4482728;32;20100;-76
2022/09/13 02:13:34;;;;;;;4.28;2.62;;;;;;;8.20;100.00;98633.84;4483674;32;20121;-76
2022/09/13 02:16:07;;;;;;;3.03;2.30;;;;;;;8.17;100.00;98632.31;4483512;32;20127;-76
2022/09/13 02:18:38;;;;;;;2.17;1.87;;;;;;;8.19;100.00;98629.59;4483713;32;20092;-76
2022/09/13 02:21:19;;;;;;;4.87;2.70;;;;;;;8.11;100.00;98632.81;4483698;32;20421;-76
2022/09/13 02:23:57;;;;;;;4.32;2.30;;;;;;;8.07;100.00;98625.34;4484866;31;20182;-76
2022/09/13 02:26:26;;;;;;;3.12;2.30;;;;;;;8.04;100.00;98628.19;4483449;32;20130;-76
2022/09/13 02:28:55;;;;;;;3.72;2.60;;;;;;;8.07;100.00;98625.34;4484489;31;20168;-76
2022/09/13 02:31:27;;;;;;;3.55;2.35;;;;;;;8.16;100.00;98628.06;4483184;32;20168;-76
2022/09/13 02:33:57;;;;;;;7.40;2.70;;;;;;;8.20;100.00;98619.97;4483575;32;20450;-76
2022/09/13 02:36:31;;;;;;;3.08;2.33;;;;;;;8.19;100.00;98624.38;4483466;32;20200;-76
2022/09/13 02:39:02;;;;;;;2.80;2.25;;;;;;;8.15;100.00;98617.75;4484947;31;20088;-76
2022/09/13 02:41:34;;;;;;;4.55;2.60;;;;;;;8.10;100.00;98615.50;4484560;31;20162;-76
2022/09/13 02:44:16;;;;;;;2.65;2.15;;;;;;;8.02;100.00;98622.28;4484961;31;20620;-76
2022/09/13 02:47:15;;;;;;;3.40;2.28;;;;;;;7.92;100.00;98617.81;4483683;32;20076;-76
2022/09/13 02:49:57;;;;;;;4.43;2.22;;;;;;;7.73;100.00;98613.25;4483374;32;20135;-75
2022/09/13 02:52:40;;;;;;;5.43;2.42;;;;;;;7.71;100.00;98609.94;4484567;31;20088;-76
2022/09/13 02:55:14;;;;;;;3.67;2.40;;;;;;;7.71;100.00;98604.72;4484358;31;20103;-76
2022/09/13 02:57:51;;;;;;;3.62;2.67;;;;;;;7.69;100.00;98600.59;4484300;31;20431;-76
2022/09/13 03:00:18;;;;;;;2.87;2.40;;;;;;;7.68;100.00;98604.97;4482894;32;20150;-76
2022/09/13 03:02:45;;;;;;;5.70;2.42;;;;;;;7.75;100.00;98597.47;4484160;31;20593;-76
2022/09/13 03:05:13;;;;;;;3.62;2.33;;;;;;;8.02;100.00;98591.00;4484441;31;20179;-76
2022/09/13 03:07:40;;;;;;;6.07;2.40;;;;;;;8.22;100.00;98591.97;4482882;32;20108;-76
2022/09/13 03:10:10;;;;;;;3.28;2.28;;;;;;;8.28;100.00;98594.91;4484402;31;20740;-76
2022/09/13 03:12:59;;;;;;;5.90;2.47;;;;;;;8.22;100.00;98603.25;4486267;31;20088;-76
2022/09/13 03:16:08;;;;;;;4.40;2.30;;;;;;;8.13;100.00;98594.38;4486438;31;20445;-76
2022/09/13 03:18:50;;;;;;;5.57;2.60;;;;;;;8.16;100.00;98590.66;4486317;32;20493;-76
2022/09/13 03:21:27;;;;;;;2.97;2.45;;;;;;;8.27;100.00;98588.03;4485161;32;20123;-76
2022/09/13 03:23:58;;;;;;;2.85;2.33;;;;;;;8.33;100.00;98591.91;4486136;31;20125;-76
2022/09/13 03:26:46;;;;;;;4.32;2.53;;;;;;;8.25;100.00;98587.34;4485005;32;20092;-76
2022/09/13 03:29:16;;;;;;;3.83;2.22;;;;;;;8.19;100.00;98590.44;4485982;31;20100;-76
2022/09/13 03:31:52;;;;;;;3.53;2.15;;;;;;;8.12;100.00;98589.28;4485987;31;20104;-76
2022/09/13 03:34:29;;;;;;;5.93;2.45;;;;;;;8.06;100.00;98593.22;4486061;31;20636;-76
2022/09/13 03:37:04;;;;;;;6.82;2.65;;;;;;;8.00;100.00;98583.28;4486140;31;20654;-76
2022/09/13 03:39:56;;;;;;;3.05;2.25;;;;;;;7.95;100.00;98581.06;4484873;32;20084;-76
2022/09/13 03:42:30;;;;;;;5.95;2.37;;;;;;;7.90;100.00;98583.22;4479456;32;20097;-75
2022/09/13 03:44:59;;;;;;;3.73;2.40;;;;;;;7.86;100.00;98576.59;4484584;32;20126;-75
2022/09/13 03:47:28;;;;;;;5.78;2.30;;;;;;;7.86;100.00;98581.81;4484702;32;20523;-75
2022/09/13 03:49:56;;;;;;;3.15;2.30;;;;;;;7.75;100.00;98580.06;4484678;32;20454;-75
2022/09/13 03:52:23;;;;;;;6.15;2.62;;;;;;;7.72;100.00;98574.25;4484618;32;20126;-75
2022/09/13 03:54:51;;;;;;;4.00;2.37;;;;;;;7.76;100.00;98578.28;4485866;31;20161;-76
2022/09/13 03:57:20;;;;;;;4.20;2.22;;;;;;;7.95;100.00;98573.22;4484750;32;20096;-76
2022/09/13 03:59:50;;;;;;;5.40;2.60;;;;;;;8.05;100.00;98565.47;4485845;31;20159;-75
2022/09/13 04:02:18;;;;;;;3.35;2.00;;;;;;;8.05;100.00;98570.69;4485773;31;20990;-76
2022/09/13 04:04:47;;;;;;;3.58;2.20;;;;;;;8.03;100.00;98571.78;4485328;31;20162;-76
2022/09/13 04:07:19;;;;;;;4.55;2.30;;;;;;;7.98;100.00;98572.97;4494591;31;20462;-76
2022/09/13 04:10:06;;;;;;;3.75;2.53;;;;;;;7.97;100.00;98573.94;4501599;31;20193;-76
2022/09/13 04:12:59;;;;;;;3.20;2.30;;;;;;;7.94;100.00;98573.34;4501377;31;20660;-75
2022/09/13 04:15:49;;;;;;;3.70;2.30;;;;;;;7.94;100.00;98579.41;4501573;31;20513;-76
2022/09/13 04:18:34;;;;;;;2.65;2.17;;;;;;;7.91;100.00;98578.81;4501163;31;20133;-76
2022/09/13 04:21:20;;;;;;;3.50;2.42;;;;;;;7.85;100.00;98582.75;4500751;31;20584;-76
2022/09/13 04:24:06;;;;;;;8.13;2.35;;;;;;;7.81;100.00;98583.94;4500771;31;20561;-75
2022/09/13 04:26:56;;;;;;;5.03;2.58;;;;;;;7.77;100.00;98587.78;4501443;31;20156;-75
2022/09/13 04:29:41;;;;;;;8.40;2.80;;;;;;;7.79;100.00;98583.25;4501593;31;20186;-75
2022/09/13 04:32:28;;;;;;;3.35;2.50;;;;;;;7.79;100.00;98591.06;4501398;31;20488;-75
2022/09/13 04:35:16;;;;;;;4.78;2.45;;;;;;;7.81;100.00;98590.00;4501370;31;20123;-76
2022/09/13 04:38:02;;;;;;;3.80;2.58;;;;;;;7.81;100.00;98579.56;4501416;31;20156;-75
2022/09/13 04:40:54;;;;;;;4.57;2.55;;;;;;;7.86;100.00;98586.19;4501126;31;20160;-74
2022/09/13 04:43:43;;;;;;;6.80;2.37;;;;;;;7.92;100.00;98588.31;4500276;31;20503;-75
2022/09/13 04:46:28;;;;;;;3.40;2.20;;;;;;;7.95;100.00;98591.50;4501168;31;20142;-75
2022/09/13 04:49:16;;;;;;;12.13;6.90;;;;;;;8.01;100.00;98584.97;4501389;31;20122;-75
2022/09/13 04:52:02;;;;;;;6.70;3.42;;;;;;;8.10;100.00;98588.56;4501269;31;20126;-75
2022/09/13 04:54:48;;;;;;;3.40;2.15;;;;;;;8.18;100.00;98586.19;4500934;31;20468;-75
2022/09/13 04:57:33;;;;;;;6.93;2.00;;;;;;;8.27;100.00;98584.59;4500566;31;20501;-76
2022/09/13 05:00:19;;;;;;;4.95;2.65;;;;;;;8.42;100.00;98595.53;4500313;31;20118;-76
2022/09/13 05:02:46;;;;;;;5.15;2.17;;;;;;;8.57;100.00;98591.69;4496540;31;20104;-73
2022/09/13 05:05:14;;;;;;;6.40;2.92;;;;;;;8.68;100.00;98588.97;4486638;31;20146;-76
2022/09/13 05:07:41;;;;;;;7.97;2.65;;;;;;;8.82;100.00;98587.00;4493810;31;20107;-75
2022/09/13 05:10:08;;;;;;;6.97;3.15;;;;;;;9.02;100.00;98596.56;4496672;31;20125;-76
2022/09/13 05:12:36;;;;;;;5.97;2.62;;;;;;;9.19;100.00;98589.91;4497439;31;20147;-77
2022/09/13 05:15:05;;;;;;;6.85;2.42;;;;;;;9.37;100.00;98584.84;4489282;31;20088;-77
2022/09/13 05:17:32;;;;;;;3.53;2.67;;;;;;;9.55;100.00;98586.81;4493732;31;20159;-77
2022/09/13 05:20:00;;;;;;;5.07;2.40;;;;;;;9.76;100.00;98591.94;4493212;31;20133;-76
2022/09/13 05:22:27;;;;;;;7.72;2.72;;;;;;;9.93;100.00;98606.13;4493307;31;20588;-76
2022/09/13 05:24:54;;;;;;;5.80;2.45;;;;;;;10.07;100.00;98592.63;4491673;31;20118;-76
2022/09/13 05:27:22;;;;;;;8.13;2.42;;;;;;;10.28;100.00;98594.28;4491951;31;20207;-75
2022/09/13 05:29:49;;;;;;;4.65;2.40;;;;;;;10.44;100.00;98598.97;4492931;31;20153;-76
2022/09/13 05:32:16;;;;;;;9.35;2.90;;;;;;;10.60;100.00;98599.22;4494267;31;20100;-77
2022/09/13 05:34:44;;;;;;;8.35;3.00;;;;;;;10.79;100.00;98592.25;4493665;31;21068;-76
2022/09/13 05:37:11;;;;;;;21.33;4.57;;;;;;;10.99;100.00;98593.88;4496549;31;20528;-76
2022/09/13 05:39:38;;;;;;;25.25;4.12;;;;;;;11.24;100.00;98602.03;4497793;31;20590;-76
2022/09/13 05:42:25;;;;;;;34.35;4.37;;;;;;;11.46;100.00;98600.81;4494374;31;20106;-76
2022/09/13 05:44:52;;;;;;;12.63;3.80;;;;;;;11.67;100.00;98597.09;4500743;31;20504;-76
2022/09/13 05:47:20;;;;;;;20.98;3.10;;;;;;;11.90;98.13;98592.25;4497124;31;20134;-76
2022/09/13 05:49:47;;;;;;;10.48;3.55;;;;;;;12.22;95.98;98596.97;4493733;31;20172;-76
2022/09/13 05:52:34;;;;;;;11.95;2.40;;;;;;;12.42;93.31;98602.88;4480210;31;22067;-75
2022/09/13 05:55:01;;;;;;;4.45;2.33;;;;;;;12.75;90.69;98605.72;4489101;31;20759;-78
2022/09/13 05:57:28;;;;;;;7.35;2.50;;;;;;;12.87;87.98;98611.56;4497252;31;20087;-79
2022/09/13 05:59:56;;;;;;;6.47;2.47;;;;;;;12.92;88.05;98603.19;4493747;31;20152;-77
2022/09/13 06:02:23;;;;;;;9.90;2.35;;;;;;;13.04;86.81;98604.56;4493969;31;20111;-77
2022/09/13 06:04:51;;;;;;;5.65;2.50;;;;;;;13.24;85.42;98609.59;4497832;31;20120;-76
2022/09/13 06:07:18;;;;;;;12.02;2.47;;;;;;;13.39;85.16;98612.47;4488794;31;163856;-77
2022/09/13 06:09:45;;;;;;;5.90;2.30;;;;;;;13.50;84.48;98612.19;4493591;31;20088;-78
2022/09/13 06:12:12;;;;;;;8.40;2.30;;;;;;;13.63;84.67;98615.19;4490180;31;20108;-78
2022/09/13 06:14:39;;;;;;;7.20;2.72;;;;;;;13.77;85.56;98612.91;4498267;31;20563;-75
2022/09/13 06:17:07;;;;;;;5.57;2.30;;;;;;;13.90;83.36;98612.44;4491079;31;20776;-75
2022/09/13 06:19:34;;;;;;;2.62;1.95;;;;;;;13.98;82.19;98605.38;4494565;31;20100;-77
2022/09/13 06:22:01;;;;;;;6.57;2.10;;;;;;;14.00;81.77;98608.69;4490124;31;20556;-76
2022/09/13 06:24:28;;;;;;;4.40;2.37;;;;;;;14.16;80.64;98607.03;4493009;31;20124;-75
2022/09/13 06:26:55;;;;;;;4.95;2.47;;;;;;;14.28;81.47;98610.19;4490732;31;20131;-74
2022/09/13 06:29:23;;;;;;;2.87;2.05;;;;;;;14.33;79.55;98607.84;4492726;31;20554;-75
2022/09/13 06:31:50;;;;;;;4.00;2.22;;;;;;;14.36;77.92;98613.63;4485923;31;20538;-76
2022/09/13 06:34:17;;;;;;;2.85;2.10;;;;;;;14.45;76.41;98613.63;4494166;31;20160;-77
2022/09/13 06:36:44;;;;;;;5.62;2.22;;;;;;;14.48;77.55;98613.28;4486524;31;20140;-76
2022/09/13 06:39:11;;;;;;;6.05;2.00;;;;;;;14.55;79.00;98606.37;4489359;31;20147;-75
2022/09/13 06:41:38;;;;;;;4.60;2.22;;;;;;;14.59;75.67;98610.31;4498134;31;20100;-75
2022/09/13 06:44:05;;;;;;;7.32;2.70;;;;;;;14.63;75.93;98614.28;4497721;31;20139;-75
2022/09/13 06:46:33;;;;;;;10.45;2.70;;;;;;;14.78;78.26;98610.97;4491190;31;20104;-75
2022/09/13 06:49:05;;;;;;;7.12;3.72;;;;;;;14.96;79.63;98606.31;4492342;31;20099;-76
2022/09/13 06:51:34;;;;;;;4.45;2.15;;;;;;;15.03;77.37;98604.66;4489201;31;20140;-76
2022/09/13 06:54:02;;;;;;;6.00;2.42;;;;;;;15.21;74.02;98614.16;4484233;31;20643;-75
2022/09/13 06:56:34;;;;;;;7.20;3.03;;;;;;;15.14;75.31;98613.19;4491344;31;20206;-76
2022/09/13 06:59:04;;;;;;;5.30;2.85;;;;;;;15.21;75.90;98620.25;4493420;31;20166;-76
2022/09/13 07:01:39;;;;;;;8.23;2.65;;;;;;;15.36;77.02;98619.53;4489915;31;20108;-77
2022/09/13 07:04:09;;;;;;;5.15;2.33;;;;;;;15.46;75.38;98620.16;4487661;31;20161;-76
2022/09/13 07:06:40;;;;;;;4.55;2.65;;;;;;;15.39;74.22;98627.91;4490510;31;20555;-76
2022/09/13 07:09:11;;;;;;;7.45;2.55;;;;;;;15.54;76.10;98632.50;4488173;31;20135;-76
2022/09/13 07:11:40;;;;;;;6.15;3.80;;;;;;;15.73;71.60;98631.22;4493253;31;20100;-76
2022/09/13 07:14:08;;;;;;;7.25;2.60;;;;;;;15.71;72.25;98628.75;4490672;31;20197;-77
2022/09/13 07:16:36;;;;;;;5.60;2.37;;;;;;;15.86;73.62;98636.78;4493580;31;20100;-75
2022/09/13 07:19:06;;;;;;;4.00;2.50;;;;;;;15.57;74.37;98629.50;4492269;31;20099;-75
2022/09/13 07:21:34;;;;;;;5.05;3.33;;;;;;;15.73;72.66;98636.50;4478565;31;20537;-75
2022/09/13 07:24:02;;;;;;;4.50;3.08;;;;;;;15.83;74.73;98637.16;4496885;31;20100;-75
2022/09/13 07:26:30;;;;;;;5.25;2.60;;;;;;;15.85;74.61;98640.47;4495942;31;20134;-77
2022/09/13 07:28:59;;;;;;;6.95;3.22;;;;;;;16.13;73.84;98643.38;4497293;31;20104;-79
2022/09/13 07:31:30;;;;;;;7.37;3.50;;;;;;;16.28;71.52;98640.81;4496419;31;20140;-75
2022/09/13 07:33:59;;;;;;;47.17;15.15;;;;;;;16.39;70.73;98642.22;4487819;31;20124;-75
2022/09/13 07:36:29;;;;;;;9.07;3.05;;;;;;;16.39;72.46;98642.22;4484480;31;20536;-75
2022/09/13 07:38:56;;;;;;;77.70;20.80;;;;;;;16.32;73.22;98638.63;4490918;31;20148;-77
2022/09/13 07:41:25;;;;;;;99.72;24.10;;;;;;;16.14;72.61;98638.94;4487168;31;20148;-75
2022/09/13 07:43:52;;;;;;;5.47;3.60;;;;;;;16.49;74.99;98639.34;4492734;31;20114;-76
2022/09/13 07:46:24;;;;;;;5.97;3.80;;;;;;;16.62;70.88;98639.56;4491904;31;20453;-76
2022/09/13 07:48:53;;;;;;;5.30;3.03;;;;;;;16.49;70.83;98641.97;4493895;31;20539;-76
2022/09/13 07:51:23;;;;;;;5.18;3.33;;;;;;;16.46;71.04;98648.44;4495094;31;20101;-77
2022/09/13 07:53:51;;;;;;;6.70;3.60;;;;;;;16.57;70.46;98649.03;4498669;31;20092;-74
2022/09/13 07:56:26;;;;;;;6.95;3.10;;;;;;;16.77;72.33;98647.50;4498531;31;20095;-73
2022/09/13 07:58:54;;;;;;;5.10;3.35;;;;;;;17.11;72.69;98651.50;4500390;31;20151;-73
2022/09/13 08:01:22;;;;;;;7.45;3.55;;;;;;;17.20;69.29;98641.66;4495876;31;20412;-76
2022/09/13 08:03:57;;;;;;;10.18;3.92;;;;;;;17.33;67.36;98638.34;4494886;31;20140;-74
2022/09/13 08:06:26;;;;;;;6.65;3.95;;;;;;;17.49;69.27;98643.44;4492091;31;20148;-76
2022/09/13 08:08:54;;;;;;;8.10;4.25;;;;;;;17.30;67.73;98644.00;4488197;31;20096;-73
2022/09/13 08:11:27;;;;;;;4.72;2.70;;;;;;;17.26;69.18;98642.72;4496556;31;20080;-73
2022/09/13 08:13:55;;;;;;;4.18;3.22;;;;;;;17.19;69.03;98643.47;4493193;31;20096;-72
2022/09/13 08:16:23;;;;;;;5.72;2.97;;;;;;;17.19;65.40;98643.47;4495811;31;20139;-76
2022/09/13 08:18:53;;;;;;;4.40;2.62;;;;;;;16.93;67.02;98643.91;4498885;31;20114;-74
2022/09/13 08:21:24;;;;;;;6.95;3.50;;;;;;;17.17;65.38;98655.25;4495176;31;20370;-76
2022/09/13 08:23:55;;;;;;;8.25;3.08;;;;;;;17.28;67.23;98651.31;4494277;31;20101;-76
2022/09/13 08:26:23;;;;;;;4.70;2.92;;;;;;;17.47;63.79;98648.12;4493280;31;20092;-76
2022/09/13 08:28:58;;;;;;;7.57;2.95;;;;;;;17.52;66.83;98650.22;4494874;31;20198;-76
2022/09/13 08:31:26;;;;;;;8.77;3.30;;;;;;;17.59;66.25;98647.62;4485260;31;20106;-75
2022/09/13 08:33:53;;;;;;;4.28;3.08;;;;;;;17.72;66.70;98645.13;4490188;31;20092;-75
2022/09/13 08:36:22;;;;;;;9.85;3.65;;;;;;;17.80;64.56;98649.50;4496383;31;20169;-75
2022/09/13 08:38:53;;;;;;;11.10;3.33;;;;;;;17.94;62.93;98642.53;4491903;31;20091;-76
2022/09/13 08:41:38;;;;;;;10.93;3.20;;;;;;;17.90;64.51;98656.19;4488852;31;20574;-74
2022/09/13 08:44:26;;;;;;;12.00;3.28;;;;;;;17.97;62.14;98645.66;4489906;31;20114;-75
2022/09/13 08:47:05;;;;;;;9.02;3.05;;;;;;;17.93;66.20;98648.88;4485796;31;20092;-74
2022/09/13 08:49:36;;;;;;;5.35;3.15;;;;;;;17.97;64.19;98645.66;4491558;31;20131;-75
2022/09/13 08:52:13;;;;;;;7.05;3.17;;;;;;;18.07;64.40;98645.34;4486128;31;20835;-75
2022/09/13 08:54:41;;;;;;;5.12;3.17;;;;;;;18.03;63.41;98644.91;4491429;31;20442;-75
2022/09/13 08:57:15;;;;;;;7.53;3.00;;;;;;;18.17;61.79;98639.72;4487507;31;20107;-75
2022/09/13 09:00:01;;;;;;;8.82;3.45;;;;;;;18.27;65.04;98638.41;4481941;31;20136;-76
2022/09/13 09:02:56;;;;;;;3.80;3.03;;;;;;;18.44;65.46;98635.50;4493264;31;20178;-77
2022/09/13 09:05:27;;;;;;;5.78;3.00;;;;;;;18.34;66.39;98645.59;4495651;31;20126;-76
2022/09/13 09:08:08;;;;;;;4.35;2.78;;;;;;;18.32;62.26;98647.59;4487042;31;20151;-76
2022/09/13 09:10:46;;;;;;;6.25;3.35;;;;;;;18.37;65.88;98639.91;4485218;31;20131;-76
2022/09/13 09:13:31;;;;;;;6.40;3.67;;;;;;;18.23;65.24;98645.09;4486077;31;20910;-76
2022/09/13 09:16:06;;;;;;;15.30;4.03;;;;;;;18.53;63.46;98638.81;4497935;31;20093;-78
2022/09/13 09:18:39;;;;;;;8.88;3.30;;;;;;;18.69;65.66;98633.22;4495584;31;20084;-77
2022/09/13 09:21:14;;;;;;;8.50;3.50;;;;;;;18.72;65.55;98635.50;4493042;31;20563;-77
2022/09/13 09:23:50;;;;;;;5.90;3.40;;;;;;;18.89;65.72;98625.44;4484242;31;20087;-77
2022/09/13 09:26:27;;;;;;;8.05;3.70;;;;;;;18.94;61.66;98627.50;4493182;31;20084;-78
2022/09/13 09:28:58;;;;;;;6.82;3.55;;;;;;;19.20;62.32;98623.34;4494683;31;20122;-78
2022/09/13 09:31:47;;;;;;;6.87;3.62;;;;;;;19.28;60.27;98613.41;4479620;31;20488;-78
2022/09/13 09:34:44;;;;;;;6.75;3.03;;;;;;;19.54;59.96;98617.19;4482672;31;20088;-78
2022/09/13 09:37:23;;;;;;;5.28;2.33;;;;;;;19.66;56.37;98612.94;4437830;32;20136;-78
2022/09/13 09:40:04;;;;;;;4.70;2.20;;;;;;;19.80;55.20;98605.87;4433062;32;20109;-78
2022/09/13 09:42:46;;;;;;;4.72;2.72;;;;;;;19.96;56.95;98617.94;4439352;32;20141;-78
2022/09/13 09:45:33;;;;;;;15.70;3.28;;;;;;;20.07;54.49;98615.72;4442657;32;20148;-77
2022/09/13 09:48:06;;;;;;;6.82;2.37;;;;;;;20.21;54.70;98614.72;4448331;32;20133;-78
2022/09/13 09:50:41;;;;;;;2.58;1.73;;;;;;;20.19;53.49;98606.94;4445033;32;20105;-75
2022/09/13 09:53:14;;;;;;;3.37;1.52;;;;;;;19.86;53.20;98612.19;4436955;32;20110;-75
2022/09/13 09:56:01;;;;;;;2.97;1.77;;;;;;;19.74;53.08;98603.16;4424827;32;20139;-75
2022/09/13 09:58:37;;;;;;;6.07;2.60;;;;;;;20.00;52.11;98597.91;4444351;32;20135;-76
2022/09/13 10:01:18;;;;;;;4.43;2.45;;;;;;;19.92;55.85;98584.81;4430344;32;20152;-78
2022/09/13 10:03:51;;;;;;;3.10;2.40;;;;;;;20.07;53.32;98579.31;4443302;32;20213;-75
2022/09/13 10:06:24;;;;;;;2.90;2.20;;;;;;;20.02;54.26;98582.56;4446579;32;20148;-75
2022/09/13 10:09:05;;;;;;;4.53;2.42;;;;;;;20.21;53.75;98577.47;4449039;32;20170;-76
2022/09/13 10:11:58;;;;;;;3.60;2.35;;;;;;;20.54;55.71;98572.12;4446345;32;20347;-76
2022/09/13 10:14:37;;;;;;;3.92;2.37;;;;;;;20.60;53.50;98567.84;4463840;31;20120;-77
2022/09/13 10:17:08;;;;;;;2.70;2.00;;;;;;;20.52;50.77;98568.06;4493355;31;20092;-76
2022/09/13 10:19:37;;;;;;;2.60;1.70;;;;;;;20.49;49.54;98574.59;4486131;31;20092;-76
2022/09/13 10:22:07;;;;;;;3.65;2.05;;;;;;;20.33;49.93;98573.19;4487094;31;20116;-78
2022/09/13 10:24:35;;;;;;;3.03;2.20;;;;;;;20.63;50.02;98569.28;4491798;31;20095;-76
2022/09/13 10:27:05;;;;;;;4.62;1.98;;;;;;;20.77;52.58;98570.09;4493019;31;20413;-77
2022/09/13 10:29:32;;;;;;;3.22;2.20;;;;;;;20.83;52.16;98574.56;4489314;31;20072;-76
2022/09/13 10:32:07;;;;;;;5.05;2.20;;;;;;;20.99;52.27;98568.00;4493442;31;20397;-78
2022/09/13 10:34:35;;;;;;;2.97;1.80;;;;;;;21.20;49.06;98558.91;4499281;31;20107;-78
2022/09/13 10:37:12;;;;;;;3.55;1.80;;;;;;;21.25;52.47;98557.22;4491431;31;20140;-76
2022/09/13 10:39:50;;;;;;;3.15;1.90;;;;;;;21.41;48.34;98549.81;4497367;31;20107;-74
2022/09/13 10:42:20;;;;;;;1.85;1.67;;;;;;;21.62;49.52;98554.03;4488246;31;20112;-77
2022/09/13 10:45:07;;;;;;;2.80;1.92;;;;;;;21.84;47.84;98559.00;4489989;31;20194;-77
2022/09/13 10:47:56;;;;;;;4.78;2.10;;;;;;;22.06;44.94;98557.62;4492652;31;20088;-77
2022/09/13 10:50:27;;;;;;;1.60;1.50;;;;;;;21.44;46.22;98552.03;4485738;31;21114;-78
2022/09/13 10:52:56;;;;;;;3.03;1.80;;;;;;;21.50;47.46;98559.22;4495217;31;20907;-79
2022/09/13 10:55:35;;;;;;;5.68;1.98;;;;;;;21.50;48.98;98556.56;4499029;31;20142;-78
2022/09/13 10:58:06;;;;;;;7.30;2.22;;;;;;;21.61;47.00;98565.72;4492399;31;20517;-79
2022/09/13 11:00:55;;;;;;;2.80;1.90;;;;;;;21.87;48.51;98561.25;4491383;31;20109;-78
2022/09/13 11:03:28;;;;;;;5.68;1.67;;;;;;;21.91;47.74;98549.94;4490547;31;20517;-77
2022/09/13 11:06:09;;;;;;;4.72;1.98;;;;;;;21.95;50.82;98544.97;4491976;31;20451;-78
2022/09/13 11:08:56;;;;;;;2.30;1.60;;;;;;;22.11;48.70;98554.31;4489271;31;20121;-78
2022/09/13 11:11:47;;;;;;;3.03;1.65;;;;;;;21.91;46.65;98546.47;4484090;31;20113;-77
2022/09/13 11:14:37;;;;;;;3.35;1.87;;;;;;;21.72;47.11;98542.88;4496401;31;20194;-76
2022/09/13 11:17:27;;;;;;;2.60;1.90;;;;;;;21.90;46.38;98547.47;4483203;31;20561;-75
2022/09/13 11:20:12;;;;;;;2.17;1.80;;;;;;;21.62;45.72;98543.38;4491390;31;20093;-75
2022/09/13 11:22:39;;;;;;;3.55;1.70;;;;;;;21.55;45.00;98540.72;4486762;31;20079;-75
2022/09/13 11:25:34;;;;;;;2.40;1.80;;;;;;;21.42;45.76;98540.75;4495427;31;20088;-76
2022/09/13 11:28:19;;;;;;;3.55;1.70;;;;;;;21.25;45.66;98537.78;4493065;31;20095;-76
2022/09/13 11:31:13;;;;;;;4.30;1.60;;;;;;;21.55;46.87;98538.06;4494520;31;20120;-76
2022/09/13 11:33:51;;;;;;;3.17;1.60;;;;;;;22.10;49.83;98531.31;4484285;31;20160;-75
2022/09/13 11:36:41;;;;;;;3.15;1.52;;;;;;;22.60;46.32;98527.81;4488102;31;20118;-76
2022/09/13 11:39:32;;;;;;;2.40;1.55;;;;;;;22.65;44.15;98527.97;4434950;32;20206;-77
2022/09/13 11:42:25;;;;;;;4.90;1.85;;;;;;;22.52;43.69;98514.78;4435874;32;20144;-75
2022/09/13 11:45:13;;;;;;;2.62;1.65;;;;;;;21.97;43.71;98516.25;4418028;32;20192;-77
2022/09/13 11:48:05;;;;;;;2.37;1.60;;;;;;;21.79;45.22;98512.47;4432846;32;20118;-77
2022/09/13 11:51:00;;;;;;;1.90;1.55;;;;;;;22.25;43.68;98498.97;4434683;32;20176;-74
2022/09/13 11:54:06;;;;;;;2.17;1.42;;;;;;;22.43;43.15;98503.56;4433244;32;20161;-76
2022/09/13 11:56:47;;;;;;;2.53;1.60;;;;;;;22.21;44.26;98495.09;4431346;32;20702;-76
2022/09/13 11:59:35;;;;;;;5.80;1.55;;;;;;;22.01;45.13;98496.09;4422367;32;20916;-76
2022/09/13 12:02:15;;;;;;;2.30;1.90;;;;;;;22.14;45.89;98495.16;4431690;32;20110;-77
2022/09/13 12:04:46;;;;;;;3.10;1.50;;;;;;;22.52;46.48;98496.09;4419661;32;20200;-75
2022/09/13 12:07:41;;;;;;;4.57;1.50;;;;;;;22.28;44.69;98495.88;4428561;32;20081;-77
2022/09/13 12:10:51;;;;;;;1.40;1.30;;;;;;;22.44;45.69;98499.87;4429413;32;20121;-77